Warroad, MN

02:29 CST le 23 novembre 2014 (GMT -0600)
Warroad International-Carlson | Change Station
CLOSE
Current Station
Aéroport
Location: Warroad,
Altitude: 1073 ft
Stations météo à proximité
Avis météorologiques actifs: Special Statement

Alt. 1073 ft 48.94 °N, 95.35 °W | Updated 16 minutes ago

Couvert
Couvert
34 ° F
Paraît 30 ° F
N
5
Vent Variable Vent de Sud

Aujourd'hui
Haut(e) -- | Bas -- ° F
--% Risque de précip.
Hier
Haut(e) -- | Bas -- ° F
Precip. -- pouce
7:42 AM 4:32 PM
Nouvelle lune, 1% visible
Pression 29.38 pouce
Visibilité 7.0 Miles terrestres
Nuages Nuageux 1600 ft
Couvert 2200 ft
Refroidissement éolien 30 ° F
Point de rosée 30 ° F
Humidité 87%
Précipitations 0.00 pouce
Profondeur de la couche neigeuse Non disponible.
UV 0 sur 12
Pollen .10 sur 12
Qualité de l'air Non disponible.
Flu Activity Non disponible.
METAR KRRT 230813Z AUTO 17004KT 7SM BKN016 OVC022 01/M01 A2938 RMK AO2

More Conditions Fewer Conditions

Pression 29.38 pouce
Visibilité 7.0 Miles terrestres
Nuages Nuageux 1600 ft
Couvert 2200 ft
Refroidissement éolien 30 ° F
Point de rosée 30 ° F
Humidité 87%
Précipitations 0.00 pouce
Profondeur de la couche neigeuse Non disponible.
UV 0 sur 12
Pollen .10 sur 12
Qualité de l'air Non disponible.
Flu Activity Non disponible.
METAR KRRT 230813Z AUTO 17004KT 7SM BKN016 OVC022 01/M01 A2938 RMK AO2

More Conditions Fewer Conditions

10-Day Weather Forecast

Almanac

Astronomie

Nov. 23, 2014 Lever Coucher
Temps réel
Crépuscule civil
Crépuscule nautique
Crépuscule astronomique
Lune
Durée de lumière visible
Longueur du jour
Tomorrow will be .
, % of the Moon is Illuminated

Extrêmes aujourd'hui

State Highs State Lows

Community

WunderPhotos

Upload Photos

1,773,024 Photos téléchargées !

WunderBlogs® & News

Nearby

Qualité de l'air

  Qualité de l'air Indice de la qualité de l'air Polluant
Not available.

Épaisseur de neige

Station Depth Altitude

Activité sismique

Ville Distance Mag. Time & Date
Minimum magnitude displayed is 2.5.

Températures des eaux côtières

Lieu Température

Stations météo à proximité